首页
METAR-TAF:

METAR-TAF

机场 :

珀斯機場

珀斯, 澳大利亚

纬度: 31-56S, 经度: 115-57E, 海拔: 20米

当前天气观测

该预报发布于49分钟前的11:00 UTC
风速8节,风向
温度 13°C
湿度 72%
气压 1026 hPa
能见度10公里或以上
1500米以下无云,无积雨云

METAR: YPPH 091100Z 18008KT CAVOK 13/08 Q1026 NOSIG

时间: 19:49 (11:49 UTC)

预报

该预报发布于41分钟前的11:08 UTC
预报有效从09日的 12点(UTC)到 10日的 18点(UTC)
风速8节,风向
能见度10公里或以上
少量云层高于4000英尺
从 09日的 1400点(UTC)
风速5节,风向东南
能见度10公里或以上
1500米以下无云,无积雨云
从 10日的 0100点(UTC)
风速9节,风向
能见度10公里或以上
1500米以下无云,无积雨云

TAF: YPPH 091108Z 0912/1018 17008KT 9999 FEW040 FM091400 14005KT CAVOK FM100100 10009KT CAVOK

超过4000个机场的气象观测和天气预报(METAR&TAF报告)。

可查询的气象台以黄色和红色小点在地图上表示。

将鼠标移到小点上方,可查看气象台名称。

然后点击查看天气观测和预报。

如需切换地图:点击带黑十字的绿色按钮放大地图;点击带横线的绿色按钮缩小地图;或者点击绿色箭头查看邻近地区的地图。


METAR-TAF: